createdAt,value
2023-04-01T00:03:08.354Z,14.50
2023-04-01T00:07:11.802Z,14.50
2023-04-01T00:11:14.837Z,14.40
2023-04-01T00:15:17.675Z,14.30
2023-04-01T00:19:20.565Z,14.30
2023-04-01T00:23:23.306Z,14.30
2023-04-01T00:27:25.986Z,14.10
2023-04-01T00:31:31.029Z,14.10
2023-04-01T00:35:35.813Z,14.00
2023-04-01T00:39:38.503Z,14.00
2023-04-01T00:43:42.350Z,14.00
2023-04-01T00:47:45.059Z,13.90
2023-04-01T00:51:49.544Z,13.80
2023-04-01T00:55:58.087Z,13.80
2023-04-01T01:00:00.993Z,13.80
2023-04-01T01:04:11.476Z,13.80
2023-04-01T01:08:20.140Z,13.80
2023-04-01T01:12:29.450Z,13.80
2023-04-01T01:16:33.842Z,13.70
2023-04-01T01:20:55.318Z,13.70
2023-04-01T01:25:02.994Z,13.60
2023-04-01T01:29:14.383Z,13.60
2023-04-01T01:33:23.957Z,13.60
2023-04-01T01:37:27.672Z,13.60
2023-04-01T01:41:31.477Z,13.60
2023-04-01T01:45:35.447Z,13.70
2023-04-01T01:49:39.322Z,13.70
2023-04-01T01:53:42.693Z,13.70
2023-04-01T01:57:48.280Z,13.80
2023-04-01T02:01:54.735Z,13.80
2023-04-01T02:06:00.552Z,13.80
2023-04-01T02:10:04.577Z,13.80
2023-04-01T02:14:21.501Z,13.70
2023-04-01T02:18:25.580Z,13.70
2023-04-01T02:22:38.863Z,13.60
2023-04-01T02:26:42.121Z,13.70
2023-04-01T02:30:45.638Z,13.60
2023-04-01T02:34:49.358Z,13.60
2023-04-01T02:38:53.301Z,13.60
2023-04-01T02:42:57.677Z,13.70
2023-04-01T02:47:00.463Z,13.60
2023-04-01T02:51:03.219Z,13.70
2023-04-01T02:55:06.412Z,13.70
2023-04-01T02:59:09.217Z,13.70
2023-04-01T03:03:12.185Z,13.70
2023-04-01T03:07:14.850Z,13.70
2023-04-01T03:11:17.494Z,13.70
2023-04-01T03:15:20.132Z,13.70
2023-04-01T03:19:22.839Z,13.70
2023-04-01T03:23:27.540Z,13.70
2023-04-01T03:27:30.441Z,13.70
2023-04-01T03:31:33.943Z,13.70
2023-04-01T03:35:37.047Z,13.60
2023-04-01T03:39:39.674Z,13.60
2023-04-01T03:43:42.443Z,13.60
2023-04-01T03:47:45.572Z,13.50
2023-04-01T03:51:53.658Z,13.40
2023-04-01T03:55:57.977Z,13.20
2023-04-01T04:00:02.890Z,13.20
2023-04-01T04:04:19.402Z,13.10
2023-04-01T04:08:23.925Z,13.00
2023-04-01T04:12:27.236Z,13.00
2023-04-01T04:16:30.734Z,13.00
2023-04-01T04:20:37.075Z,13.00
2023-04-01T04:24:39.928Z,13.00
2023-04-01T04:28:47.675Z,13.00
2023-04-01T04:32:52.673Z,13.10
2023-04-01T04:36:56.250Z,13.10
2023-04-01T04:41:03.839Z,13.00
2023-04-01T04:45:08.729Z,13.00
2023-04-01T04:49:14.592Z,13.00
2023-04-01T04:53:20.131Z,13.00
2023-04-01T04:57:24.945Z,13.00
2023-04-01T05:01:32.148Z,12.90
2023-04-01T05:05:35.140Z,12.90
2023-04-01T05:09:40.996Z,12.90
2023-04-01T05:13:44.787Z,12.90
2023-04-01T05:17:48.100Z,12.90
2023-04-01T05:21:57.129Z,12.90
2023-04-01T05:26:03.537Z,12.90
2023-04-01T05:30:07.938Z,13.00
2023-04-01T05:34:23.167Z,13.00
2023-04-01T05:38:27.014Z,13.00
2023-04-01T05:42:31.404Z,13.00
2023-04-01T05:46:38.423Z,13.00
2023-04-01T05:50:59.030Z,12.90
2023-04-01T05:55:01.889Z,12.90
2023-04-01T05:59:04.517Z,12.90
2023-04-01T06:03:08.851Z,13.00
2023-04-01T06:07:15.962Z,13.00
2023-04-01T06:11:25.277Z,13.00
2023-04-01T06:15:51.264Z,13.00
2023-04-01T06:20:12.548Z,13.00
2023-04-01T06:24:16.848Z,13.00
2023-04-01T06:28:40.901Z,13.00
2023-04-01T06:33:08.494Z,13.00
2023-04-01T06:37:17.619Z,13.00
2023-04-01T06:41:26.892Z,12.90
2023-04-01T06:45:30.942Z,12.90
2023-04-01T06:50:04.459Z,13.00
2023-04-01T06:54:30.049Z,13.00
2023-04-01T06:58:41.350Z,13.10
2023-04-01T07:02:55.116Z,13.30
2023-04-01T07:07:00.428Z,13.40
2023-04-01T07:11:05.343Z,13.60
2023-04-01T07:15:29.766Z,13.80
2023-04-01T07:19:41.288Z,13.90
2023-04-01T07:23:53.237Z,14.00
2023-04-01T07:28:18.278Z,14.10
2023-04-01T07:32:29.206Z,14.10
2023-04-01T07:36:39.347Z,14.30
2023-04-01T07:40:48.406Z,14.40
2023-04-01T07:45:17.053Z,14.40
2023-04-01T07:49:47.898Z,14.50
2023-04-01T07:54:01.393Z,14.90
2023-04-01T07:58:25.898Z,15.10
2023-04-01T08:02:47.967Z,15.20
2023-04-01T08:06:51.172Z,15.20
2023-04-01T08:10:54.163Z,15.40
2023-04-01T08:15:28.377Z,15.50
2023-04-01T08:20:09.726Z,15.60
2023-04-01T08:24:46.469Z,15.70
2023-04-01T08:28:55.338Z,16.10
2023-04-01T08:33:05.737Z,16.40
2023-04-01T08:37:16.761Z,16.20
2023-04-01T08:41:32.574Z,16.00
2023-04-01T08:46:16.455Z,16.00
2023-04-01T08:50:39.335Z,15.90
2023-04-01T08:55:04.357Z,15.90
2023-04-01T08:59:26.836Z,16.10
2023-04-01T09:03:34.335Z,16.40
2023-04-01T09:07:43.702Z,16.80
2023-04-01T09:11:53.476Z,16.70
2023-04-01T09:16:23.344Z,16.70
2023-04-01T09:20:29.653Z,16.90
2023-04-01T09:24:43.374Z,17.00
2023-04-01T09:29:19.305Z,17.20
2023-04-01T09:33:42.669Z,17.20
2023-04-01T09:37:49.893Z,17.20
2023-04-01T09:42:16.193Z,17.50
2023-04-01T09:46:52.088Z,18.00
2023-04-01T09:51:04.283Z,18.10
2023-04-01T09:55:47.299Z,18.00
2023-04-01T10:00:11.353Z,18.00
2023-04-01T10:04:39.396Z,18.10
2023-04-01T10:08:53.715Z,18.40
2023-04-01T10:13:03.282Z,18.30
2023-04-01T10:17:26.838Z,18.50
2023-04-01T10:21:44.410Z,18.70
2023-04-01T10:25:53.932Z,18.50
2023-04-01T10:29:58.530Z,18.80
2023-04-01T10:34:22.471Z,19.10
2023-04-01T10:38:28.410Z,19.50
2023-04-01T10:42:32.870Z,19.50
2023-04-01T10:47:28.105Z,19.40
2023-04-01T10:51:40.010Z,19.30
2023-04-01T10:56:04.579Z,19.50
2023-04-01T11:00:41.179Z,19.60
2023-04-01T11:05:05.683Z,19.50
2023-04-01T11:09:39.611Z,19.40
2023-04-01T11:13:54.667Z,19.20
2023-04-01T11:18:13.619Z,19.40
2023-04-01T11:22:34.781Z,19.30
2023-04-01T11:27:01.201Z,19.50
2023-04-01T11:31:53.407Z,20.00
2023-04-01T11:36:09.058Z,20.00
2023-04-01T11:40:34.562Z,19.70
2023-04-01T11:45:28.892Z,19.50
2023-04-01T11:49:50.621Z,19.50
2023-04-01T11:54:18.776Z,19.60
2023-04-01T11:58:21.397Z,19.80
2023-04-01T12:02:34.113Z,19.70
2023-04-01T12:06:46.231Z,19.70
2023-04-01T12:10:58.026Z,19.90
2023-04-01T12:15:04.226Z,19.90
2023-04-01T12:19:26.764Z,19.80
2023-04-01T12:23:40.400Z,20.20
2023-04-01T12:27:50.157Z,20.60
2023-04-01T12:31:57.237Z,20.70
2023-04-01T12:36:09.825Z,20.80
2023-04-01T12:40:26.040Z,20.80
2023-04-01T12:44:29.289Z,20.80
2023-04-01T12:48:44.201Z,21.00
2023-04-01T12:53:01.489Z,21.00
2023-04-01T12:57:19.477Z,21.40
2023-04-01T13:01:44.571Z,21.50
2023-04-01T13:05:47.292Z,21.50
2023-04-01T13:10:24.014Z,21.40
2023-04-01T13:14:55.914Z,21.40
2023-04-01T13:19:08.512Z,21.10
2023-04-01T13:23:11.346Z,21.10
2023-04-01T13:27:24.321Z,21.10
2023-04-01T13:31:31.850Z,21.00
2023-04-01T13:35:57.596Z,20.80
2023-04-01T13:40:16.405Z,20.70
2023-04-01T13:44:22.486Z,20.80
2023-04-01T13:48:44.346Z,20.90
2023-04-01T13:53:23.796Z,21.00
2023-04-01T13:57:36.299Z,21.00
2023-04-01T14:01:57.788Z,20.80
2023-04-01T14:06:06.885Z,20.90
2023-04-01T14:10:19.062Z,20.80
2023-04-01T14:14:37.668Z,20.80
2023-04-01T14:18:49.433Z,21.00
2023-04-01T14:23:02.498Z,21.00
2023-04-01T14:27:10.100Z,21.10
2023-04-01T14:31:12.788Z,21.00
2023-04-01T14:35:24.309Z,20.70
2023-04-01T14:39:31.499Z,20.70
2023-04-01T14:43:44.431Z,20.70
2023-04-01T14:47:51.238Z,20.70
2023-04-01T14:51:54.234Z,20.80
2023-04-01T14:56:00.863Z,20.70
2023-04-01T15:00:10.171Z,20.60
2023-04-01T15:04:34.626Z,20.60
2023-04-01T15:08:49.921Z,20.70
2023-04-01T15:13:01.902Z,20.60
2023-04-01T15:17:14.389Z,20.50
2023-04-01T15:21:36.517Z,20.40
2023-04-01T15:26:03.412Z,20.40
2023-04-01T15:30:25.906Z,20.50
2023-04-01T15:34:49.546Z,20.50
2023-04-01T15:39:11.139Z,20.50
2023-04-01T15:43:28.958Z,20.30
2023-04-01T15:47:31.865Z,20.00
2023-04-01T15:51:57.463Z,19.90
2023-04-01T15:56:19.102Z,19.80
2023-04-01T16:00:40.676Z,19.80
2023-04-01T16:04:59.531Z,19.60
2023-04-01T16:09:31.595Z,19.50
2023-04-01T16:13:52.890Z,19.90
2023-04-01T16:18:25.961Z,20.00
2023-04-01T16:22:37.729Z,20.00
2023-04-01T16:26:50.688Z,19.90
2023-04-01T16:30:56.530Z,19.60
2023-04-01T16:35:06.092Z,19.70
2023-04-01T16:39:15.952Z,20.00
2023-04-01T16:43:26.284Z,19.50
2023-04-01T16:47:52.308Z,19.10
2023-04-01T16:52:00.583Z,19.20
2023-04-01T16:56:03.684Z,19.70
2023-04-01T17:00:24.933Z,20.00
2023-04-01T17:04:42.278Z,20.10
2023-04-01T17:09:03.616Z,19.70
2023-04-01T17:13:12.216Z,19.30
2023-04-01T17:17:35.109Z,19.50
2023-04-01T17:21:40.917Z,19.50
2023-04-01T17:25:52.858Z,19.20
2023-04-01T17:29:55.584Z,18.60
2023-04-01T17:34:26.473Z,18.10
2023-04-01T17:38:32.022Z,17.60
2023-04-01T17:42:43.864Z,17.10
2023-04-01T17:46:46.841Z,16.90
2023-04-01T17:51:01.910Z,16.60
2023-04-01T17:55:24.396Z,16.50
2023-04-01T17:59:39.469Z,16.30
2023-04-01T18:04:01.116Z,16.00
2023-04-01T18:08:06.952Z,15.90
2023-04-01T18:12:28.419Z,15.70
2023-04-01T18:16:36.413Z,15.40
2023-04-01T18:20:46.762Z,15.20
2023-04-01T18:25:09.608Z,14.90
2023-04-01T18:29:23.324Z,14.80
2023-04-01T18:33:30.069Z,14.70
2023-04-01T18:37:51.475Z,14.60
2023-04-01T18:42:24.873Z,14.50
2023-04-01T18:46:27.634Z,14.30
2023-04-01T18:50:42.341Z,14.20
2023-04-01T18:55:12.750Z,14.10
2023-04-01T18:59:19.862Z,14.10
2023-04-01T19:03:30.839Z,14.00
2023-04-01T19:07:37.845Z,14.00
2023-04-01T19:11:55.885Z,13.90
2023-04-01T19:16:04.988Z,13.80
2023-04-01T19:20:16.831Z,13.60
2023-04-01T19:24:23.470Z,13.40
2023-04-01T19:28:31.681Z,13.20
2023-04-01T19:32:44.443Z,13.10
2023-04-01T19:36:52.539Z,13.00
2023-04-01T19:41:02.535Z,12.90
2023-04-01T19:45:19.138Z,12.80
2023-04-01T19:49:27.070Z,12.60
2023-04-01T19:53:35.501Z,12.60
2023-04-01T19:57:48.948Z,12.50
2023-04-01T20:02:00.406Z,12.50
2023-04-01T20:06:07.994Z,12.50
2023-04-01T20:10:11.354Z,12.50
2023-04-01T20:14:14.128Z,12.50
2023-04-01T20:18:18.665Z,12.50
2023-04-01T20:22:39.636Z,12.50
2023-04-01T20:26:44.602Z,12.50
2023-04-01T20:30:47.188Z,12.30
2023-04-01T20:34:59.133Z,12.10
2023-04-01T20:39:08.674Z,12.00
2023-04-01T20:43:15.120Z,11.80
2023-04-01T20:52:21.315Z,11.80
2023-04-01T20:56:30.145Z,11.80
2023-04-01T21:01:11.814Z,11.80
2023-04-01T21:05:34.096Z,11.80
2023-04-01T21:14:35.044Z,11.70
2023-04-01T21:18:38.858Z,11.60
2023-04-01T21:22:42.549Z,11.60
2023-04-01T21:26:57.503Z,11.50
2023-04-01T21:31:06.788Z,11.40
2023-04-01T21:35:23.452Z,11.40
2023-04-01T21:39:45.768Z,11.40
2023-04-01T21:44:24.738Z,11.30
2023-04-01T21:48:31.076Z,11.30
2023-04-01T21:52:47.556Z,11.20
2023-04-01T22:01:40.036Z,11.40
2023-04-01T22:05:51.394Z,11.50
2023-04-01T22:10:16.188Z,11.50
2023-04-01T22:14:57.702Z,11.60
2023-04-01T22:19:22.738Z,11.60
2023-04-01T22:23:35.524Z,11.70
2023-04-01T22:27:42.689Z,11.80
2023-04-01T22:32:04.844Z,11.80
2023-04-01T22:36:30.588Z,11.80
2023-04-01T22:40:39.578Z,11.80
2023-04-01T22:44:57.062Z,11.80
2023-04-01T22:49:25.439Z,11.80
2023-04-01T22:53:33.935Z,11.90
2023-04-01T22:57:47.773Z,11.90
2023-04-01T23:02:07.867Z,11.90
2023-04-01T23:06:40.894Z,11.80
2023-04-01T23:11:13.857Z,11.80
2023-04-01T23:15:20.306Z,11.80
2023-04-01T23:19:28.561Z,11.70
2023-04-01T23:23:46.085Z,11.60
2023-04-01T23:27:56.354Z,11.40
2023-04-01T23:32:01.823Z,11.10
2023-04-01T23:36:17.054Z,11.00
2023-04-01T23:40:22.972Z,10.90
2023-04-01T23:44:29.312Z,10.60
2023-04-01T23:48:43.408Z,10.50
2023-04-01T23:52:56.636Z,10.40
2023-04-01T23:57:04.699Z,10.30
